Gore Bay Manitoulin Airport
CYZE : now visible

Airfield :











YOU CAN JOIN US ON...

 
LOGIN :

Register | Disclaimer

   EN    FR    IT 

 









Legend :    VFR   Marginal VFR   IFR   Intensive IFR   Very Intensive IFR
Visi :
Ceiling :
>= 8 km
>= 3000ft
5 to 8 km
1000 to 3000 ft
1500m to 5 km
500 to 1000 ft
800 to 1500m
200 to 500 ft
< 800m
< 200 ft
Symbols :   Thunderstorms  Fog  Heavy snow  Heavy precipitations  Wind > 20 kt






- Airport Elevation : 635 ft
- IATA code : YZE


CYZE - Gore Bay Manitoulin

CURRENT METAR :
  • 081733Z AUTO 27016G23KT 9SM BKN014 BKN026 06/02 A2965 RMK SLP047

EXPIRED METARs :
  • 081711Z AUTO 30014G22KT 9SM SCT012 BKN026 06/03 A2965 RMK SLP048
  • 081700Z AUTO 30012G19KT 9SM BKN012 BKN028 06/03 A2965 RMK SLP047
  • 081645Z AUTO 29013G18KT 9SM BKN012 OVC028 06/03 A2965 RMK SLP047
  • 081605Z AUTO 29014G20KT 9SM SCT010 OVC026 05/03 A2964 RMK SLP046
  • 081556Z AUTO 28013G20KT 9SM BKN010 OVC026 05/03 A2964 RMK SLP046
  • 081523Z AUTO 30009KT 9SM OVC005 04/03 A2964 RMK SLP045
  • 081500Z AUTO 30008KT 9SM OVC003 04/03 A2964 RMK SLP044

TAF AMD TAF CYZE
Valid from the 08 at 16:00 until the 08 at 22:00 UTC


081623Z 0816/0822 29015KT P6SM SCT008 OVC025
TEMPO 0816/0818 BKN008 OVC025
FM081800 28010KT P6SM BKN030
TEMPO 0818/0820 OVC015
FM082000 28010KT P6SM BKN030 RMK FCST BASED ON AUTO OBS. NXT FCST BY 082000Z



MET'MAP, your aeronautical weather chart ! - Copyright ORBIFLY December 2007 - Disclaimer

ORBIFLY MET'MAP TEAM :

Programming & Development : Alexandra Zaïnal
Concept & original design : Baudouin d'Aumeries
Assistance for programming : Marc-Olivier Méhu
Technical & hardware support : Manuel Goepfert

Contact : metmap@orbifly.com




SOURCES & CREDITS :

   NOAA       Earth
Advisory